Terminal Aerodrome Forecast
Issued by NWS El Paso, TX

Home | Current Version | Previous Version | Text Only | Print | Product List | Glossary On
Versions: 1 2 3 4 5 6 7 8 9 10 11 12
030
FTUS44 KEPZ 241729
TAFELP
TAF
KELP 241729Z 2418/2518 24014G22KT P6SM SCT250
     FM242000 24018G25KT P6SM FEW250
     FM250300 27018G28KT P6SM SKC
     FM250900 27011KT P6SM SKC
     FM251500 23012G20KT P6SM SKC=

USA.gov is the U.S. government's official web portal to all federal, state and local government web resources and services.